»·PEaware :: SKW3657 KMSP-KMSO

SKW3657 :: KMSP-KMSO

FLIGHT INFORMATION

Flight Status: Arrived
Operator:
SkyWest Airlines
More flights by this operator :: More flights under this callsign
Pilot: Leo L. (42155)
Aircraft: EMBRAER EMB-170/175
(E170)
More flights by this aircraft type
Origin: KMSP Minneapolis-St Paul Intl
United States
Destination: KMSO Missoula Intl
United States
More flights between these airports :: More routes between these airports
Route: SMERF7 SMERF DIK KU12W HILGR J203 GTF MSO
File this flight plan on PilotEdge
Remarks: RMK / SIMBRIEF
Altitude:
(Current/Filed)
34,000ft
Speed:
(Current/Filed)
455kts
Departed: 21-Feb-23 10:06 AM
Arrived: 21-Feb-23 11:27 AM
Distance/Time
Traveled:
877nm/1:21
Distance/Time
To Go:
Arrived

Flight Plot

Page will automatically refresh every two minutes.

Flight plan parsing failed; only flown route is shown


Map Options




Map Legend


Flown Route
Filed Route
Departure Airport
Arrival Airport
Navaid (VOR, NDB)
Fix

Horizontal Profiles

Position Reports

Time Latitude Longitude Heading Altitude Ground
Speed
21-Feb-23 10:04 46.944008 -103.494664 277 33630ft 345kts
21-Feb-23 10:05 46.959644 -103.633679 277 33629ft 345kts
21-Feb-23 10:06 46.974972 -103.771503 277 33663ft 345kts
21-Feb-23 10:08 46.992849 -103.934257 277 33682ft 346kts
21-Feb-23 10:09 47.006894 -104.074625 276 33654ft 349kts
21-Feb-23 10:09 47.017666 -104.192106 276 33626ft 349kts
21-Feb-23 10:10 47.030391 -104.332821 276 33634ft 350kts
21-Feb-23 10:11 47.043054 -104.474743 276 33635ft 351kts
21-Feb-23 10:12 47.055548 -104.616891 276 33631ft 351kts
21-Feb-23 10:13 47.068141 -104.762162 274 33684ft 365kts
21-Feb-23 10:14 47.080703 -104.909535 274 33681ft 365kts
21-Feb-23 10:15 47.093134 -105.057543 274 33668ft 365kts
21-Feb-23 10:16 47.105389 -105.205810 274 33658ft 366kts
21-Feb-23 10:17 47.117447 -105.354083 274 33655ft 367kts
21-Feb-23 10:18 47.129341 -105.502793 274 33654ft 368kts
21-Feb-23 10:19 47.141095 -105.652189 274 33652ft 368kts
21-Feb-23 10:20 47.152671 -105.801923 274 33664ft 369kts
21-Feb-23 10:21 47.164046 -105.951596 274 33679ft 368kts
21-Feb-23 10:22 47.175300 -106.102320 274 33704ft 372kts
21-Feb-23 10:23 47.186406 -106.253646 274 33703ft 372kts
21-Feb-23 10:24 47.197305 -106.405305 274 33701ft 372kts
21-Feb-23 10:25 47.208003 -106.556820 274 33699ft 373kts
21-Feb-23 10:26 47.218503 -106.708479 273 33709ft 373kts
21-Feb-23 10:27 47.228811 -106.860228 273 33707ft 374kts
21-Feb-23 10:28 47.238924 -107.012106 273 33699ft 373kts
21-Feb-23 10:29 47.248876 -107.164701 273 33695ft 375kts
21-Feb-23 10:30 47.258637 -107.317464 273 33693ft 375kts
21-Feb-23 10:31 47.268218 -107.470770 273 33691ft 376kts
21-Feb-23 10:32 47.277605 -107.624271 273 33689ft 376kts
21-Feb-23 10:33 47.286792 -107.777928 273 33700ft 376kts
21-Feb-23 10:34 47.295793 -107.931931 272 33698ft 377kts
21-Feb-23 10:35 47.304617 -108.086539 272 33691ft 379kts
21-Feb-23 10:36 47.313234 -108.241086 272 33678ft 378kts
21-Feb-23 10:37 47.321622 -108.395550 272 33675ft 379kts
21-Feb-23 10:38 47.329832 -108.550423 272 33672ft 379kts
21-Feb-23 10:39 47.337743 -108.703602 272 33681ft 379kts
21-Feb-23 10:40 47.345492 -108.857724 272 33681ft 379kts
21-Feb-23 10:41 47.353044 -109.012068 272 33675ft 379kts
21-Feb-23 10:42 47.360476 -109.167161 272 33656ft 380kts
21-Feb-23 10:43 47.368103 -109.322992 272 33654ft 381kts
21-Feb-23 10:44 47.375535 -109.478879 272 33658ft 381kts
21-Feb-23 10:45 47.382771 -109.635177 272 33662ft 382kts
21-Feb-23 10:46 47.389839 -109.792519 271 33677ft 385kts
21-Feb-23 10:47 47.396674 -109.949563 271 33683ft 384kts
21-Feb-23 10:48 47.403341 -110.107703 271 33712ft 386kts
21-Feb-23 10:49 47.409781 -110.265677 271 33726ft 386kts
21-Feb-23 10:50 47.416027 -110.424238 271 33728ft 387kts
21-Feb-23 10:51 47.422033 -110.582334 271 33729ft 387kts
21-Feb-23 10:52 47.427868 -110.741690 270 33744ft 388kts
21-Feb-23 10:53 47.433413 -110.899203 270 33750ft 389kts
21-Feb-23 10:54 47.438814 -111.058794 270 33757ft 390kts
21-Feb-23 10:55 47.444013 -111.219060 270 33760ft 391kts
21-Feb-23 10:56 47.449016 -111.379585 270 32747ft 392kts
21-Feb-23 10:57 47.426747 -111.534314 254 30770ft 382kts
21-Feb-23 10:58 47.398560 -111.681839 253 28829ft 372kts
21-Feb-23 10:59 47.370318 -111.828402 253 26930ft 370kts
21-Feb-23 11:00 47.342096 -111.973731 253 25026ft 369kts
21-Feb-23 11:01 47.313718 -112.118777 253 23153ft 364kts
21-Feb-23 11:02 47.285913 -112.259816 253 21336ft 354kts
21-Feb-23 11:03 47.258750 -112.396622 253 19569ft 343kts
21-Feb-23 11:04 47.232043 -112.530204 253 17846ft 336kts
21-Feb-23 11:05 47.205725 -112.660911 252 16128ft 332kts
21-Feb-23 11:06 47.179652 -112.789595 253 15142ft 328kts
21-Feb-23 11:07 47.153346 -112.918605 253 15076ft 331kts
21-Feb-23 11:08 47.126582 -113.048992 252 15000ft 333kts
21-Feb-23 11:09 47.099676 -113.179208 253 14984ft 333kts
21-Feb-23 11:10 47.072658 -113.309118 253 14990ft 332kts
21-Feb-23 11:11 47.045495 -113.438917 253 14992ft 332kts
21-Feb-23 11:12 46.974224 -113.515803 203 14989ft 338kts
21-Feb-23 11:13 46.886483 -113.565357 203 14987ft 338kts
21-Feb-23 11:14 46.798515 -113.614460 203 14990ft 338kts
21-Feb-23 11:15 46.713051 -113.669409 229 14988ft 332kts
21-Feb-23 11:16 46.655536 -113.774681 233 13501ft 325kts
21-Feb-23 11:17 46.601439 -113.873279 233 11810ft 291kts
21-Feb-23 11:18 46.557121 -113.963007 264 10315ft 256kts
21-Feb-23 11:19 46.604087 -114.019612 338 9076ft 237kts
21-Feb-23 11:20 46.668503 -114.039940 350 8380ft 230kts
21-Feb-23 11:21 46.728075 -114.052158 350 7768ft 213kts
21-Feb-23 11:22 46.783285 -114.063450 351 6796ft 183kts
21-Feb-23 11:23 46.828094 -114.072572 351 6005ft 147kts
21-Feb-23 11:24 46.867966 -114.068853 37 4704ft 155kts
21-Feb-23 11:25 46.900392 -114.064574 304 3559ft 144kts
21-Feb-23 11:26 46.918084 -114.093958 24 3200ft 20kts
21-Feb-23 11:27 46.917913 -114.090302 67 3203ft 13kts
21-Feb-23 11:28 46.919430 -114.087803 130 3206ft 8kts
21-Feb-23 11:29 46.918078 -114.084265 50 3206ft 0kts
21-Feb-23 11:30 46.918078 -114.084265 50 3206ft 0kts

Navigation Log

Ident Type
Flight plan parsing failed, navigation log unavailable